Main page
METAR-TAF:

METAR-TAF

Airports :

Stauning Vestjylland Airport

Ringkøbing-Skjern, Denmark

latitude: 56-00N, longitude: 008-21E, elevation: 5 m

Current weather observation

The report was made 40 minutes ago, at 18:50 UTC
Wind 14 kt from the West/Northwest, varying between West/Southwest and Northwest
Temperature 12°C
Humidity 71%
Pressure 1019 hPa
Visibility 10 km or more

METAR: EKVJ 191850Z AUTO 29014KT 250V320 9999 BKN023/// 12/07 Q1019 TEST

Time: 21:30 (19:30 UTC)


TAF: missing

Weather observations and forecasts of more than 4000 airports (METAR and TAF reports).

The available stations are represented by yellow and red dots on the map.

Hover mouse over dot to see the name of the station.

Then click to see weather observations and forecasts.

To change the map : click on the green buttons with a black cross to zoom in, on the green button with a dash to zoom out, or on the green arrows for adjacent maps.


METAR-TAF: